createdAt,value
2022-07-27T00:01:26.476Z,-23794.03
2022-07-27T00:03:29.274Z,-23793.56
2022-07-27T00:05:31.963Z,-23789.50
2022-07-27T00:07:34.690Z,-23786.03
2022-07-27T00:09:41.045Z,-23789.03
2022-07-27T00:11:43.895Z,-23790.91
2022-07-27T00:13:46.928Z,-23794.19
2022-07-27T00:15:49.967Z,-23791.69
2022-07-27T00:17:53.581Z,-23795.16
2022-07-27T00:19:56.240Z,-23791.06
2022-07-27T00:21:59.849Z,-23792.78
2022-07-27T00:24:02.629Z,-23792.31
2022-07-27T00:26:06.643Z,-23793.09
2022-07-27T00:28:09.317Z,-23791.22
2022-07-27T00:30:12.260Z,-23794.66
2022-07-27T00:32:14.889Z,-23792.31
2022-07-27T00:34:17.622Z,-23795.16
2022-07-27T00:36:20.264Z,-23794.19
2022-07-27T00:38:22.967Z,-23796.09
2022-07-27T00:40:26.164Z,-23796.41
2022-07-27T00:42:31.184Z,-23795.94
2022-07-27T00:44:35.005Z,-23796.41
2022-07-27T00:46:37.913Z,-23796.41
2022-07-27T00:48:40.723Z,-23797.03
2022-07-27T00:50:45.256Z,-23799.84
2022-07-27T00:52:48.464Z,-23788.09
2022-07-27T00:54:51.498Z,-23782.75
2022-07-27T00:56:54.595Z,-23785.72
2022-07-27T00:58:59.100Z,-23787.28
2022-07-27T01:01:01.758Z,-23784.31
2022-07-27T01:03:09.302Z,-23790.44
2022-07-27T01:05:12.429Z,-23790.75
2022-07-27T01:07:16.449Z,-23789.50
2022-07-27T01:09:36.733Z,-23786.97
2022-07-27T01:11:40.036Z,-23788.09
2022-07-27T01:13:43.447Z,-23785.72
2022-07-27T01:15:47.971Z,-23786.34
2022-07-27T01:17:50.698Z,-23776.31
2022-07-27T01:19:53.805Z,-23775.81
2022-07-27T01:21:57.835Z,-23774.09
2022-07-27T01:24:00.483Z,-23779.75
2022-07-27T01:26:03.540Z,-23778.34
2022-07-27T01:28:06.493Z,-23773.47
2022-07-27T01:30:24.314Z,-23774.41
2022-07-27T01:32:26.948Z,-23771.75
2022-07-27T01:34:29.676Z,-23772.06
2022-07-27T01:36:32.458Z,-23774.56
2022-07-27T01:38:36.506Z,-23772.06
2022-07-27T01:40:39.674Z,-23775.19
2022-07-27T01:42:42.442Z,-23768.75
2022-07-27T01:44:45.115Z,-23762.94
2022-07-27T01:46:47.841Z,-23763.56
2022-07-27T01:48:50.713Z,-23763.75
2022-07-27T01:50:53.407Z,-23768.44
2022-07-27T01:52:56.080Z,-23766.25
2022-07-27T01:55:00.216Z,-23762.94
2022-07-27T01:57:02.843Z,-23763.56
2022-07-27T01:59:05.541Z,-23762.47
2022-07-27T02:01:08.735Z,-23762.47
2022-07-27T02:03:12.385Z,-23765.16
2022-07-27T02:05:15.202Z,-23767.50
2022-07-27T02:07:18.112Z,-23765.78
2022-07-27T02:09:21.302Z,-23765.63
2022-07-27T02:11:42.907Z,-23762.94
2022-07-27T02:13:47.253Z,-23761.22
2022-07-27T02:15:49.953Z,-23762.63
2022-07-27T02:17:57.499Z,-23760.91
2022-07-27T02:20:00.523Z,-23763.41
2022-07-27T02:22:03.215Z,-23760.13
2022-07-27T02:24:06.768Z,-23758.06
2022-07-27T02:26:09.905Z,-23756.50
2022-07-27T02:28:14.069Z,-23755.56
2022-07-27T02:30:17.835Z,-23756.66
2022-07-27T02:32:21.126Z,-23753.38
2022-07-27T02:34:24.063Z,-23755.25
2022-07-27T02:36:29.047Z,-23757.59
2022-07-27T02:38:31.891Z,-23758.25
2022-07-27T02:40:34.560Z,-23756.19
2022-07-27T02:42:37.473Z,-23758.25
2022-07-27T02:44:41.720Z,-23759.34
2022-07-27T02:46:44.779Z,-23754.47
2022-07-27T02:48:47.598Z,-23756.19
2022-07-27T02:50:50.326Z,-23752.09
2022-07-27T02:52:53.008Z,-23757.59
2022-07-27T02:54:55.652Z,-23756.81
2022-07-27T02:57:00.455Z,-23758.06
2022-07-27T02:59:04.034Z,-23751.94
2022-07-27T03:01:09.025Z,-23756.81
2022-07-27T03:03:11.729Z,-23745.19
2022-07-27T03:05:14.368Z,-23750.38
2022-07-27T03:07:17.045Z,-23741.09
2022-07-27T03:09:19.837Z,-23742.97
2022-07-27T03:11:35.850Z,-23741.09
2022-07-27T03:13:38.480Z,-23742.50
2022-07-27T03:15:41.278Z,-23742.34
2022-07-27T03:17:46.117Z,-23744.88
2022-07-27T03:19:50.663Z,-23746.91
2022-07-27T03:21:53.746Z,-23743.91
2022-07-27T03:23:56.397Z,-23740.16
2022-07-27T03:25:59.110Z,-23743.91
2022-07-27T03:28:04.198Z,-23739.53
2022-07-27T03:30:08.702Z,-23735.59
2022-07-27T03:32:11.397Z,-23734.19
2022-07-27T03:34:15.537Z,-23734.66
2022-07-27T03:36:18.182Z,-23735.91
2022-07-27T03:38:20.804Z,-23737.78
2022-07-27T03:40:23.702Z,-23742.34
2022-07-27T03:42:26.358Z,-23739.84
2022-07-27T03:44:29.058Z,-23738.72
2022-07-27T03:46:31.756Z,-23737.31
2022-07-27T03:48:34.502Z,-23735.13
2022-07-27T03:50:38.726Z,-23736.84
2022-07-27T03:52:45.463Z,-23732.59
2022-07-27T03:54:48.957Z,-23728.97
2022-07-27T03:56:51.639Z,-23735.13
2022-07-27T03:58:54.344Z,-23735.13
2022-07-27T04:00:57.166Z,-23737.63
2022-07-27T04:03:00.018Z,-23736.53
2022-07-27T04:05:02.737Z,-23736.69
2022-07-27T04:07:06.897Z,-23740.31
2022-07-27T04:09:09.563Z,-23742.34
2022-07-27T04:11:12.239Z,-23742.66
2022-07-27T04:13:16.612Z,-23738.72
2022-07-27T04:15:21.429Z,-23730.56
2022-07-27T04:17:56.509Z,-23730.56
2022-07-27T04:19:46.973Z,-23734.97
2022-07-27T04:21:49.829Z,-23732.44
2022-07-27T04:23:53.840Z,-23731.66
2022-07-27T04:25:56.965Z,-23736.06
2022-07-27T04:27:59.695Z,-23732.91
2022-07-27T04:30:06.879Z,-23727.88
2022-07-27T04:32:11.792Z,-23726.63
2022-07-27T04:34:14.550Z,-23731.19
2022-07-27T04:36:17.249Z,-23738.56
2022-07-27T04:38:19.928Z,-23744.25
2022-07-27T04:40:24.261Z,-23738.56
2022-07-27T04:42:26.939Z,-23739.53
2022-07-27T04:44:29.616Z,-23744.72
2022-07-27T04:46:32.430Z,-23737.31
2022-07-27T04:48:36.565Z,-23745.81
2022-07-27T04:50:43.140Z,-23738.25
2022-07-27T04:52:45.842Z,-23745.03
2022-07-27T04:54:52.376Z,-23747.69
2022-07-27T04:56:56.407Z,-23737.78
2022-07-27T04:58:59.068Z,-23738.56
2022-07-27T05:01:01.883Z,-23739.38
2022-07-27T05:03:04.885Z,-23743.78
2022-07-27T05:05:07.911Z,-23741.09
2022-07-27T05:07:10.576Z,-23743.91
2022-07-27T05:09:13.629Z,-23738.72
2022-07-27T05:11:16.579Z,-23738.91
2022-07-27T05:13:21.371Z,-23744.72
2022-07-27T05:15:24.553Z,-23741.25
2022-07-27T05:17:27.211Z,-23739.38
2022-07-27T05:19:40.289Z,-23738.56
2022-07-27T05:21:43.788Z,-23740.47
2022-07-27T05:23:46.413Z,-23741.72
2022-07-27T05:25:49.105Z,-23735.75
2022-07-27T05:27:54.751Z,-23737.94
2022-07-27T05:29:59.211Z,-23741.88
2022-07-27T05:32:01.985Z,-23744.72
2022-07-27T05:34:04.697Z,-23748.00
2022-07-27T05:36:08.010Z,-23749.59
2022-07-27T05:38:10.777Z,-23748.78
2022-07-27T05:40:14.088Z,-23759.66
2022-07-27T05:42:16.805Z,-23759.19
2022-07-27T05:44:19.477Z,-23762.00
2022-07-27T05:46:24.907Z,-23759.00
2022-07-27T05:48:29.259Z,-23752.41
2022-07-27T05:50:31.983Z,-23748.00
2022-07-27T05:52:35.646Z,-23751.16
2022-07-27T05:54:38.344Z,-23753.03
2022-07-27T05:56:41.253Z,-23754.31
2022-07-27T05:58:43.942Z,-23749.28
2022-07-27T06:00:46.645Z,-23746.13
2022-07-27T06:02:50.691Z,-23750.22
2022-07-27T06:04:54.363Z,-23750.69
2022-07-27T06:07:14.643Z,-23743.44
2022-07-27T06:09:17.356Z,-23750.69
2022-07-27T06:11:19.977Z,-23759.19
2022-07-27T06:13:28.046Z,-23755.09
2022-07-27T06:15:31.284Z,-23753.38
2022-07-27T06:17:34.053Z,-23749.91
2022-07-27T06:19:39.560Z,-23759.66
2022-07-27T06:21:42.291Z,-23757.91
2022-07-27T06:23:45.165Z,-23749.28
2022-07-27T06:25:47.863Z,-23758.38
2022-07-27T06:27:50.935Z,-23773.94
2022-07-27T06:29:53.598Z,-23768.44
2022-07-27T06:31:56.339Z,-23766.56
2022-07-27T06:34:01.997Z,-23763.41
2022-07-27T06:36:08.331Z,-23763.09
2022-07-27T06:38:11.028Z,-23770.34
2022-07-27T06:40:14.566Z,-23770.97
2022-07-27T06:42:17.248Z,-23782.91
2022-07-27T06:44:19.951Z,-23766.41
2022-07-27T06:46:22.827Z,-23762.63
2022-07-27T06:48:26.185Z,-23763.25
2022-07-27T06:50:28.893Z,-23763.09
2022-07-27T06:52:32.957Z,-23772.06
2022-07-27T06:54:35.742Z,-23778.81
2022-07-27T06:56:38.581Z,-23786.97
2022-07-27T06:58:41.266Z,-23782.28
2022-07-27T07:00:44.145Z,-23787.13
2022-07-27T07:02:57.187Z,-23796.88
2022-07-27T07:05:00.091Z,-23799.69
2022-07-27T07:07:06.862Z,-23797.03
2022-07-27T07:09:11.960Z,-23803.31
2022-07-27T07:11:14.894Z,-23788.88
2022-07-27T07:13:17.613Z,-23803.63
2022-07-27T07:15:20.249Z,-23801.28
2022-07-27T07:17:22.893Z,-23812.72
2022-07-27T07:19:25.605Z,-23813.34
2022-07-27T07:21:28.332Z,-23808.31
2022-07-27T07:23:31.313Z,-23823.38
2022-07-27T07:25:36.448Z,-23813.97
2022-07-27T07:27:39.099Z,-23822.44
2022-07-27T07:29:42.977Z,-23824.31
2022-07-27T07:31:45.789Z,-23817.44
2022-07-27T07:33:48.550Z,-23818.38
2022-07-27T07:36:12.376Z,-23819.31
2022-07-27T07:38:14.351Z,-23822.59
2022-07-27T07:40:43.265Z,-23812.41
2022-07-27T07:42:53.577Z,-23818.69
2022-07-27T07:44:56.283Z,-23823.69
2022-07-27T07:46:58.997Z,-23814.91
2022-07-27T07:49:01.827Z,-23824.94
2022-07-27T07:51:04.693Z,-23831.84
2022-07-27T07:53:07.360Z,-23823.06
2022-07-27T07:55:10.928Z,-23825.28
2022-07-27T07:57:14.383Z,-23832.31
2022-07-27T07:59:18.728Z,-23843.13
2022-07-27T08:01:21.614Z,-23816.81
2022-07-27T08:03:24.395Z,-23824.31
2022-07-27T08:05:27.855Z,-23838.44
2022-07-27T08:07:30.542Z,-23846.91
2022-07-27T08:09:33.246Z,-23845.97
2022-07-27T08:11:38.907Z,-23863.03
2022-07-27T08:13:41.554Z,-23830.91
2022-07-27T08:15:45.720Z,-23836.09
2022-07-27T08:17:48.863Z,-23823.06
2022-07-27T08:19:51.495Z,-23821.34
2022-07-27T08:21:54.237Z,-23828.72
2022-07-27T08:23:56.973Z,-23831.06
2022-07-27T08:26:07.205Z,-23849.25
2022-07-27T08:28:10.560Z,-23854.72
2022-07-27T08:30:13.847Z,-23831.38
2022-07-27T08:32:18.077Z,-23835.63
2022-07-27T08:34:20.882Z,-23848.16
2022-07-27T08:36:23.599Z,-23853.16
2022-07-27T08:38:27.502Z,-23835.63
2022-07-27T08:40:47.066Z,-23852.06
2022-07-27T08:42:50.202Z,-23867.88
2022-07-27T08:44:53.964Z,-23868.50
2022-07-27T08:46:57.990Z,-23874.31
2022-07-27T08:49:03.068Z,-23863.34
2022-07-27T08:51:07.475Z,-23892.31
2022-07-27T08:53:12.270Z,-23870.72
2022-07-27T08:55:15.289Z,-23895.75
2022-07-27T08:57:18.000Z,-23881.03
2022-07-27T08:59:20.728Z,-23888.09
2022-07-27T09:01:23.484Z,-23901.53
2022-07-27T09:03:26.380Z,-23895.13
2022-07-27T09:05:37.434Z,-23898.72
2022-07-27T09:07:40.868Z,-23900.28
2022-07-27T09:09:47.856Z,-23915.91
2022-07-27T09:12:05.333Z,-23916.06
2022-07-27T09:14:11.245Z,-23937.00
2022-07-27T09:16:19.319Z,-23891.84
2022-07-27T09:18:24.363Z,-23906.69
2022-07-27T09:20:27.141Z,-23915.28
2022-07-27T09:22:49.685Z,-23894.19
2022-07-27T09:25:03.284Z,-23904.66
2022-07-27T09:27:06.558Z,-23927.94
2022-07-27T09:29:11.949Z,-23935.44
2022-07-27T09:31:16.293Z,-23928.88
2022-07-27T09:33:19.094Z,-23966.97
2022-07-27T09:35:25.128Z,-23969.63
2022-07-27T09:37:28.995Z,-23949.50
2022-07-27T09:39:33.035Z,-23957.00
2022-07-27T09:41:46.029Z,-23991.94
2022-07-27T09:44:30.522Z,-23949.81
2022-07-27T09:46:13.868Z,-23965.41
2022-07-27T09:48:18.312Z,-23959.81
2022-07-27T09:50:23.669Z,-24004.69
2022-07-27T09:52:28.902Z,-24022.63
2022-07-27T09:54:47.378Z,-23949.81
2022-07-27T09:57:00.153Z,-23959.50
2022-07-27T09:59:04.686Z,-23955.59
2022-07-27T10:01:07.905Z,-23933.72
2022-07-27T10:03:10.724Z,-23901.38
2022-07-27T10:05:18.117Z,-23887.94
2022-07-27T10:07:21.278Z,-23896.38
2022-07-27T10:09:24.640Z,-23911.84
2022-07-27T10:11:29.410Z,-23904.03
2022-07-27T10:13:32.208Z,-23890.75
2022-07-27T10:15:46.752Z,-23900.44
2022-07-27T10:17:59.151Z,-23910.28
2022-07-27T10:20:05.617Z,-23922.94
2022-07-27T10:22:08.348Z,-23928.41
2022-07-27T10:24:13.814Z,-23921.84
2022-07-27T10:26:21.831Z,-23924.66
2022-07-27T10:28:27.511Z,-23931.06
2022-07-27T10:30:30.184Z,-23906.84
2022-07-27T10:32:34.957Z,-23919.50
2022-07-27T10:34:39.895Z,-23921.38
2022-07-27T10:36:54.253Z,-23926.25
2022-07-27T10:38:58.756Z,-23919.19
2022-07-27T10:41:22.896Z,-23951.38
2022-07-27T10:43:27.011Z,-23957.63
2022-07-27T10:46:00.944Z,-23955.75
2022-07-27T10:48:03.463Z,-23922.31
2022-07-27T10:50:29.986Z,-23930.75
2022-07-27T10:52:42.579Z,-23952.63
2022-07-27T10:54:49.624Z,-23954.19
2022-07-27T10:56:57.089Z,-23949.50
2022-07-27T10:59:02.348Z,-23933.41
2022-07-27T11:01:07.305Z,-23922.16
2022-07-27T11:03:10.493Z,-23913.88
2022-07-27T11:05:42.548Z,-23936.69
2022-07-27T11:07:44.637Z,-23945.59
2022-07-27T11:10:09.198Z,-23940.44
2022-07-27T11:12:13.903Z,-23943.72
2022-07-27T11:14:18.938Z,-23957.31
2022-07-27T11:16:24.296Z,-23966.03
2022-07-27T11:18:28.612Z,-23968.06
2022-07-27T11:20:31.726Z,-23954.19
2022-07-27T11:24:59.439Z,-23984.91
2022-07-27T11:27:02.173Z,-23949.81
2022-07-27T11:29:23.369Z,-23971.03
2022-07-27T11:31:54.044Z,-23977.91
2022-07-27T11:33:57.542Z,-23977.59
2022-07-27T11:36:01.833Z,-23958.88
2022-07-27T11:38:07.562Z,-23956.69
2022-07-27T11:40:48.140Z,-23950.91
2022-07-27T11:42:43.224Z,-23946.22
2022-07-27T11:44:47.537Z,-23964.31
2022-07-27T11:46:52.135Z,-23945.44
2022-07-27T11:49:07.270Z,-23957.94
2022-07-27T11:51:10.885Z,-23976.81
2022-07-27T11:53:13.634Z,-23986.94
2022-07-27T11:55:16.386Z,-23964.63
2022-07-27T11:57:20.570Z,-23970.09
2022-07-27T11:59:24.546Z,-23976.66
2022-07-27T12:01:30.384Z,-23969.78
2022-07-27T12:03:46.874Z,-23976.97
2022-07-27T12:05:51.630Z,-23968.22
2022-07-27T12:07:55.519Z,-23926.25
2022-07-27T12:09:59.820Z,-23937.31
2022-07-27T12:12:08.907Z,-23956.53
2022-07-27T12:14:13.276Z,-23952.78
2022-07-27T12:16:19.572Z,-23952.00
2022-07-27T12:18:23.716Z,-23946.38
2022-07-27T12:20:34.151Z,-23941.53
2022-07-27T12:22:39.055Z,-23952.63
2022-07-27T12:24:44.533Z,-23957.00
2022-07-27T12:27:06.696Z,-23947.00
2022-07-27T12:29:12.685Z,-23942.00
2022-07-27T12:31:19.877Z,-23955.75
2022-07-27T12:33:32.232Z,-23924.50
2022-07-27T12:35:46.109Z,-23942.94
2022-07-27T12:37:49.762Z,-23949.34
2022-07-27T12:39:52.488Z,-23952.16
2022-07-27T12:42:03.971Z,-23966.66
2022-07-27T12:44:08.345Z,-23981.63
2022-07-27T12:46:12.724Z,-23971.34
2022-07-27T12:48:17.733Z,-23959.81
2022-07-27T12:50:29.177Z,-23983.19
2022-07-27T12:52:32.413Z,-23966.03
2022-07-27T12:54:35.248Z,-23988.81
2022-07-27T12:56:38.222Z,-23972.44
2022-07-27T12:58:41.284Z,-23986.00
2022-07-27T13:00:44.368Z,-23974.63
2022-07-27T13:02:47.571Z,-23979.63
2022-07-27T13:04:51.253Z,-23966.97
2022-07-27T13:06:55.296Z,-23979.00
2022-07-27T13:08:58.005Z,-23943.25
2022-07-27T13:11:00.870Z,-23941.06
2022-07-27T13:13:03.752Z,-23950.75
2022-07-27T13:15:07.924Z,-23942.94
2022-07-27T13:17:10.700Z,-23958.88
2022-07-27T13:19:15.738Z,-23961.97
2022-07-27T13:21:19.525Z,-23987.56
2022-07-27T13:23:23.619Z,-23987.09
2022-07-27T13:25:26.363Z,-23970.09
2022-07-27T13:27:29.443Z,-23982.88
2022-07-27T13:29:32.190Z,-23994.91
2022-07-27T13:31:35.574Z,-23987.09
2022-07-27T13:33:38.335Z,-23968.22
2022-07-27T13:35:41.049Z,-23967.59
2022-07-27T13:37:43.767Z,-23956.69
2022-07-27T13:39:47.891Z,-23946.22
2022-07-27T13:41:52.869Z,-23945.13
2022-07-27T13:43:57.843Z,-23949.97
2022-07-27T13:46:00.679Z,-23949.19
2022-07-27T13:48:03.393Z,-23971.66
2022-07-27T13:50:16.760Z,-23961.97
2022-07-27T13:52:20.407Z,-23953.41
2022-07-27T13:54:23.153Z,-23929.50
2022-07-27T13:56:29.831Z,-23926.69
2022-07-27T13:58:32.536Z,-23924.34
2022-07-27T14:00:35.414Z,-23946.22
2022-07-27T14:02:39.551Z,-23959.50
2022-07-27T14:04:42.555Z,-23966.66
2022-07-27T14:06:46.471Z,-23963.84
2022-07-27T14:08:50.902Z,-23976.34
2022-07-27T14:10:52.727Z,-23979.78
2022-07-27T14:12:58.928Z,-23965.41
2022-07-27T14:15:01.766Z,-23957.31
2022-07-27T14:17:04.988Z,-23966.38
2022-07-27T14:19:12.529Z,-23951.22
2022-07-27T14:21:15.853Z,-23963.06
2022-07-27T14:23:18.518Z,-23974.16
2022-07-27T14:25:21.326Z,-23980.06
2022-07-27T14:27:24.062Z,-23969.47
2022-07-27T14:29:28.105Z,-23971.97
2022-07-27T14:31:30.819Z,-23968.22
2022-07-27T14:33:36.485Z,-23962.44
2022-07-27T14:35:40.913Z,-23951.69
2022-07-27T14:37:43.909Z,-23942.63
2022-07-27T14:39:46.580Z,-23940.44
2022-07-27T14:41:49.766Z,-23934.97
2022-07-27T14:43:52.514Z,-23933.25
2022-07-27T14:45:56.801Z,-23929.81
2022-07-27T14:47:59.950Z,-23941.06
2022-07-27T14:50:02.744Z,-23929.50
2022-07-27T14:52:08.456Z,-23931.53
2022-07-27T14:54:11.294Z,-23926.09
2022-07-27T14:56:14.172Z,-23926.09
2022-07-27T14:58:16.995Z,-23928.41
2022-07-27T15:00:19.918Z,-23929.66
2022-07-27T15:02:24.194Z,-23939.66
2022-07-27T15:04:27.347Z,-23935.44
2022-07-27T15:06:32.839Z,-23945.13
2022-07-27T15:08:39.511Z,-23966.03
2022-07-27T15:10:43.918Z,-23938.56
2022-07-27T15:12:46.612Z,-23941.84
2022-07-27T15:14:49.316Z,-23945.44
2022-07-27T15:16:52.408Z,-23949.50
2022-07-27T15:18:56.449Z,-23936.38
2022-07-27T15:20:59.560Z,-23952.94
2022-07-27T15:23:02.910Z,-23951.38
2022-07-27T15:25:07.534Z,-23959.81
2022-07-27T15:27:13.994Z,-23941.69
2022-07-27T15:29:16.903Z,-23937.63
2022-07-27T15:31:19.810Z,-23932.63
2022-07-27T15:33:22.617Z,-23932.78
2022-07-27T15:35:26.985Z,-23929.97
2022-07-27T15:37:29.808Z,-23929.97
2022-07-27T15:39:32.467Z,-23937.31
2022-07-27T15:41:37.077Z,-23936.84
2022-07-27T15:43:40.286Z,-23927.31
2022-07-27T15:45:45.413Z,-23917.78
2022-07-27T15:47:52.532Z,-23914.66
2022-07-27T15:49:55.487Z,-23914.97
2022-07-27T15:52:01.181Z,-23907.00
2022-07-27T15:54:04.041Z,-23916.06
2022-07-27T15:56:07.263Z,-23913.09
2022-07-27T15:58:10.442Z,-23920.13
2022-07-27T16:00:14.451Z,-23924.66
2022-07-27T16:02:18.705Z,-23930.59
2022-07-27T16:04:27.593Z,-23929.50
2022-07-27T16:06:34.000Z,-23918.56
2022-07-27T16:08:41.025Z,-23913.88
2022-07-27T16:10:44.741Z,-23915.59
2022-07-27T16:12:47.504Z,-23916.06
2022-07-27T16:14:50.252Z,-23916.53
2022-07-27T16:16:52.984Z,-23916.38
2022-07-27T16:18:57.193Z,-23918.41
2022-07-27T16:20:59.860Z,-23918.88
2022-07-27T16:23:02.655Z,-23922.94
2022-07-27T16:25:34.891Z,-23925.91
2022-07-27T16:27:44.952Z,-23923.41
2022-07-27T16:29:47.710Z,-23920.75
2022-07-27T16:31:51.218Z,-23921.06
2022-07-27T16:33:55.140Z,-23930.13
2022-07-27T16:35:58.216Z,-23927.63
2022-07-27T16:38:01.352Z,-23921.69
2022-07-27T16:40:04.234Z,-23927.94
2022-07-27T16:42:08.414Z,-23921.84
2022-07-27T16:44:11.077Z,-23918.88
2022-07-27T16:46:14.347Z,-23914.19
2022-07-27T16:48:18.425Z,-23909.50
2022-07-27T16:50:21.510Z,-23909.97
2022-07-27T16:52:24.143Z,-23909.19
2022-07-27T16:54:26.849Z,-23907.78
2022-07-27T16:56:29.610Z,-23900.13
2022-07-27T16:58:33.767Z,-23904.19
2022-07-27T17:00:38.776Z,-23900.91
2022-07-27T17:02:41.794Z,-23898.25
2022-07-27T17:04:44.625Z,-23903.56
2022-07-27T17:06:47.568Z,-23901.69
2022-07-27T17:08:50.355Z,-23904.81
2022-07-27T17:10:53.169Z,-23904.34
2022-07-27T17:12:57.705Z,-23906.84
2022-07-27T17:15:02.070Z,-23902.94
2022-07-27T17:17:04.805Z,-23905.13
2022-07-27T17:19:07.542Z,-23909.66
2022-07-27T17:21:12.483Z,-23903.25
2022-07-27T17:23:15.610Z,-23905.28
2022-07-27T17:25:18.370Z,-23900.13
2022-07-27T17:27:21.902Z,-23902.78
2022-07-27T17:29:24.670Z,-23900.44
2022-07-27T17:31:29.409Z,-23900.91
2022-07-27T17:33:32.223Z,-23897.94
2022-07-27T17:35:35.268Z,-23898.56
2022-07-27T17:38:03.399Z,-23898.88
2022-07-27T17:40:00.835Z,-23896.22
2022-07-27T17:42:03.552Z,-23897.94
2022-07-27T17:44:06.219Z,-23895.13
2022-07-27T17:46:09.744Z,-23896.06
2022-07-27T17:48:13.906Z,-23897.63
2022-07-27T17:50:16.565Z,-23892.00
2022-07-27T17:52:19.188Z,-23892.47
2022-07-27T17:54:21.863Z,-23892.94
2022-07-27T17:56:24.548Z,-23890.13
2022-07-27T17:58:30.178Z,-23889.66
2022-07-27T18:00:33.252Z,-23887.00
2022-07-27T18:02:35.897Z,-23886.06
2022-07-27T18:04:40.075Z,-23884.94
2022-07-27T18:06:42.920Z,-23887.00
2022-07-27T18:08:46.535Z,-23886.06
2022-07-27T18:10:51.357Z,-23887.78
2022-07-27T18:12:54.024Z,-23883.38
2022-07-27T18:15:14.193Z,-23882.28
2022-07-27T18:17:16.958Z,-23878.53
2022-07-27T18:19:19.708Z,-23882.59
2022-07-27T18:21:23.996Z,-23881.34
2022-07-27T18:23:26.757Z,-23879.94
2022-07-27T18:25:29.586Z,-23878.53
2022-07-27T18:27:34.546Z,-23878.22
2022-07-27T18:29:37.539Z,-23875.56
2022-07-27T18:31:41.374Z,-23874.78
2022-07-27T18:33:47.122Z,-23876.03
2022-07-27T18:35:50.215Z,-23875.41
2022-07-27T18:37:54.350Z,-23875.09
2022-07-27T18:39:57.223Z,-23872.75
2022-07-27T18:42:03.528Z,-23871.66
2022-07-27T18:44:06.512Z,-23873.53
2022-07-27T18:46:09.213Z,-23871.19
2022-07-27T18:48:11.970Z,-23867.25
2022-07-27T18:50:14.661Z,-23865.38
2022-07-27T18:52:17.360Z,-23867.25
2022-07-27T18:54:22.277Z,-23868.50
2022-07-27T18:56:24.957Z,-23869.00
2022-07-27T18:58:27.757Z,-23866.47
2022-07-27T19:00:30.913Z,-23871.03
2022-07-27T19:02:38.903Z,-23869.13
2022-07-27T19:04:42.325Z,-23863.50
2022-07-27T19:06:45.449Z,-23866.63
2022-07-27T19:08:48.790Z,-23865.38
2022-07-27T19:10:53.041Z,-23863.50
2022-07-27T19:12:56.332Z,-23863.50
2022-07-27T19:14:59.008Z,-23865.53
2022-07-27T19:17:01.788Z,-23864.75
2022-07-27T19:19:07.674Z,-23865.06
2022-07-27T19:21:12.799Z,-23861.47
2022-07-27T19:23:15.530Z,-23865.22
2022-07-27T19:25:18.277Z,-23863.50
2022-07-27T19:27:22.619Z,-23858.19
2022-07-27T19:29:25.316Z,-23856.31
2022-07-27T19:31:28.252Z,-23855.06
2022-07-27T19:33:31.160Z,-23857.88
2022-07-27T19:35:34.118Z,-23854.41
2022-07-27T19:37:39.113Z,-23850.66
2022-07-27T19:39:57.518Z,-23849.88
2022-07-27T19:42:04.798Z,-23849.41
2022-07-27T19:44:09.496Z,-23851.44
2022-07-27T19:46:12.332Z,-23849.25
2022-07-27T19:48:15.539Z,-23845.66
2022-07-27T19:50:18.235Z,-23846.91
2022-07-27T19:52:21.872Z,-23843.28
2022-07-27T19:54:25.677Z,-23843.13
2022-07-27T19:56:28.494Z,-23839.06
2022-07-27T19:58:31.915Z,-23840.00
2022-07-27T20:00:36.011Z,-23832.47
2022-07-27T20:02:38.758Z,-23835.31
2022-07-27T20:04:41.527Z,-23834.53
2022-07-27T20:06:44.281Z,-23831.38
2022-07-27T20:08:47.932Z,-23830.59
2022-07-27T20:10:50.635Z,-23829.81
2022-07-27T20:12:53.686Z,-23828.72
2022-07-27T20:14:56.529Z,-23826.84
2022-07-27T20:17:01.520Z,-23827.47
2022-07-27T20:19:05.485Z,-23823.38
2022-07-27T20:21:22.763Z,-23825.59
2022-07-27T20:23:26.412Z,-23828.09
2022-07-27T20:25:29.129Z,-23823.22
2022-07-27T20:27:31.825Z,-23821.97
2022-07-27T20:29:34.538Z,-23819.94
2022-07-27T20:31:38.497Z,-23823.06
2022-07-27T20:33:42.571Z,-23821.66
2022-07-27T20:35:45.444Z,-23821.19
2022-07-27T20:37:48.484Z,-23820.88
2022-07-27T20:39:51.772Z,-23820.56
2022-07-27T20:41:54.597Z,-23821.81
2022-07-27T20:43:57.439Z,-23822.44
2022-07-27T20:46:00.341Z,-23823.69
2022-07-27T20:48:03.230Z,-23819.31
2022-07-27T20:50:10.163Z,-23822.75
2022-07-27T20:52:13.045Z,-23824.00
2022-07-27T20:54:15.752Z,-23823.06
2022-07-27T20:56:18.991Z,-23821.34
2022-07-27T20:58:21.668Z,-23822.13
2022-07-27T21:00:28.943Z,-23824.63
2022-07-27T21:02:32.040Z,-23824.63
2022-07-27T21:04:35.358Z,-23825.75
2022-07-27T21:06:39.557Z,-23823.22
2022-07-27T21:08:46.477Z,-23825.59
2022-07-27T21:10:49.645Z,-23824.50
2022-07-27T21:12:53.513Z,-23822.13
2022-07-27T21:14:56.193Z,-23819.47
2022-07-27T21:16:59.478Z,-23820.41
2022-07-27T21:19:02.263Z,-23821.34
2022-07-27T21:21:05.124Z,-23822.75
2022-07-27T21:23:26.826Z,-23820.56
2022-07-27T21:25:29.755Z,-23820.41
2022-07-27T21:27:32.622Z,-23817.75
2022-07-27T21:29:35.728Z,-23815.53
2022-07-27T21:31:38.948Z,-23810.53
2022-07-27T21:33:41.783Z,-23810.84
2022-07-27T21:35:44.504Z,-23808.66
2022-07-27T21:37:47.155Z,-23805.19
2022-07-27T21:39:51.157Z,-23804.56
2022-07-27T21:41:57.199Z,-23803.94
2022-07-27T21:44:03.248Z,-23801.28
2022-07-27T21:46:06.092Z,-23800.47
2022-07-27T21:48:08.820Z,-23799.84
2022-07-27T21:50:13.275Z,-23799.22
2022-07-27T21:52:16.035Z,-23796.56
2022-07-27T21:54:18.805Z,-23795.63
2022-07-27T21:56:22.866Z,-23795.47
2022-07-27T21:58:25.577Z,-23795.16
2022-07-27T22:00:29.532Z,-23791.22
2022-07-27T22:02:32.409Z,-23789.97
2022-07-27T22:04:35.306Z,-23792.47
2022-07-27T22:06:38.414Z,-23790.91
2022-07-27T22:08:41.282Z,-23788.88
2022-07-27T22:10:43.940Z,-23789.03
2022-07-27T22:12:48.173Z,-23786.97
2022-07-27T22:14:50.837Z,-23787.91
2022-07-27T22:16:53.982Z,-23786.19
2022-07-27T22:18:57.494Z,-23789.66
2022-07-27T22:21:00.323Z,-23784.78
2022-07-27T22:23:03.142Z,-23784.16
2022-07-27T22:25:06.827Z,-23781.66
2022-07-27T22:27:09.895Z,-23780.69
2022-07-27T22:29:14.510Z,-23784.16
2022-07-27T22:31:22.414Z,-23781.00
2022-07-27T22:33:26.554Z,-23778.66
2022-07-27T22:35:29.502Z,-23776.63
2022-07-27T22:37:32.278Z,-23776.47
2022-07-27T22:39:35.360Z,-23779.75
2022-07-27T22:41:39.919Z,-23781.00
2022-07-27T22:43:42.601Z,-23779.44
2022-07-27T22:45:46.827Z,-23779.59
2022-07-27T22:47:49.583Z,-23778.34
2022-07-27T22:49:52.341Z,-23780.22
2022-07-27T22:51:55.002Z,-23777.25
2022-07-27T22:53:57.697Z,-23778.50
2022-07-27T22:56:00.437Z,-23784.31
2022-07-27T22:58:03.674Z,-23782.59
2022-07-27T23:00:07.898Z,-23784.47
2022-07-27T23:02:11.968Z,-23784.78
2022-07-27T23:04:15.222Z,-23784.16
2022-07-27T23:06:18.303Z,-23784.47
2022-07-27T23:08:22.012Z,-23785.41
2022-07-27T23:10:42.135Z,-23789.81
2022-07-27T23:12:44.788Z,-23786.50
2022-07-27T23:14:49.013Z,-23787.91
2022-07-27T23:16:52.229Z,-23786.97
2022-07-27T23:18:56.221Z,-23784.31
2022-07-27T23:20:58.948Z,-23786.34
2022-07-27T23:23:01.819Z,-23787.44
2022-07-27T23:25:07.204Z,-23787.44
2022-07-27T23:27:10.025Z,-23784.78
2022-07-27T23:29:12.763Z,-23785.41
2022-07-27T23:31:16.894Z,-23784.78
2022-07-27T23:33:19.726Z,-23785.72
2022-07-27T23:35:23.989Z,-23782.59
2022-07-27T23:37:27.122Z,-23782.91
2022-07-27T23:39:29.786Z,-23782.59
2022-07-27T23:41:32.794Z,-23784.78
2022-07-27T23:43:35.620Z,-23784.94
2022-07-27T23:45:38.896Z,-23779.13